Southwestern Research Station, Arizona Weather observations

Data are for 10 minute period ending at time listed.
 Day   Time   Solar   Ave.   Ave.  Ave.  Vector  Max.   Baro.   Total    
  of    of     Rad.   Air    Rel.  Wind   Wind   Wind  Press.  Precip.   
Year   Day            Temp.  Hum.  Speed  Dir.   Gust                    
2026   (PST)  Kw/m2    F      %     mph   deg.    mph    mb.     in.     
-------------------------------------------------------------------------
 247   22:10   0.00   66.5    92    0.0     0     0.0   837.5    0.00 
 247   22:20   0.00   66.3    92    0.3   273     1.9   837.5    0.00 
 247   22:30   0.00   65.9    93    0.0     0     0.0   837.5    0.00 
 247   22:40   0.00   65.6    94    0.1   298     1.2   837.5    0.00 
 247   22:50   0.00   65.6    94    0.0   252     1.3   837.4    0.00 
 247   23:00   0.00   65.3    94    0.2   270     1.2   837.4    0.00 
 247   23:10   0.00   65.0    94    0.0   220     0.9   837.3    0.00 
 247   23:20   0.00   64.6    95    0.2   330     1.2   837.3    0.00 
 247   23:30   0.00   64.2    94    0.1   282     1.2   837.3    0.00 
 247   23:40   0.00   63.9    95    0.1   267     1.3   837.3    0.00 
 247   23:50   0.00   63.5    95    0.0     0     0.0   837.3    0.00 
 248    0:00   0.00   63.1    96    0.0     0     0.0   837.3    0.00 
 248    0:10   0.00   62.7    96    0.0   250     0.9   837.3    0.00 
 248    0:20   0.00   62.3    97    0.1   348     1.7   837.3    0.00 
 248    0:30   0.00   62.2    97    0.1   314     1.8   837.3    0.00 
 248    0:40   0.00   61.9    98    0.0   275     0.9   837.3    0.00 
 248    0:50   0.00   61.8    98    0.0     0     0.0   837.3    0.00 
 248    1:00   0.00   61.8    98    0.0     0     0.0   837.2    0.00 
 248    1:10   0.00   61.9    98    0.0     0     0.0   837.1    0.00 
 248    1:20   0.00   61.9    98    0.1   268     1.2   837.0    0.00 
 248    1:30   0.00   62.1    98    0.0     0     0.0   837.0    0.00 
 248    1:40   0.00   62.1    98    0.0     0     0.0   837.0    0.00 
 248    1:50   0.00   62.2    98    0.0     0     0.0   837.0    0.00 
 248    2:00   0.00   62.3    98    0.1   257     1.3   837.0    0.00 
 248    2:10   0.00   62.5    98    0.0     0     0.0   837.0    0.00 
 248    2:20   0.00   62.4    98    0.0   249     0.8   837.0    0.00 
 248    2:30   0.00   62.2    98    0.2   268     2.1   836.9    0.00 
 248    2:40   0.00   62.2    98    0.0     0     0.0   836.9    0.00 
 248    2:50   0.00   62.3    98    0.0    32     0.3   837.0    0.00 
 248    3:00   0.00   62.2    98    0.0   280     0.2   837.0    0.00 
 248    3:10   0.00   62.0    98    0.1   323     1.3   837.0    0.00 
 248    3:20   0.00   61.7    98    0.0   342     0.6   837.1    0.00 
 248    3:30   0.00   61.6    98    0.2   316     1.6   837.1    0.00 
 248    3:40   0.00   61.2    98    0.0   252     0.5   837.0    0.00 
 248    3:50   0.00   61.1    98    0.2   269     1.5   837.1    0.00 
 248    4:00   0.00   60.4    97    0.1   340     0.8   837.1    0.00 
 248    4:10   0.00   60.3    98    0.1   291     1.2   837.0    0.00 
 248    4:20   0.00   59.6    97    0.3   333     1.3   837.0    0.00 
 248    4:30   0.00   59.4    97    0.3   311     1.5   837.0    0.00 
 248    4:40   0.00   59.2    97    0.0   270     0.5   837.0    0.00 
 248    4:50   0.00   58.8    98    0.0   293     0.4   837.0    0.00 
 248    5:00   0.00   58.6    98    0.2   273     1.4   837.0    0.00 
 248    5:10   0.00   58.2    98    0.2   253     1.2   837.0    0.00 
 248    5:20   0.00   57.9    98    0.1   293     1.4   837.0    0.00 
 248    5:30   0.00   57.6    99    0.2   262     1.5   837.0    0.00 
 248    5:40   0.00   57.3    99    0.3   272     1.0   837.0    0.00 
 248    5:50   0.00   57.1    99    0.0   270     0.7   837.0    0.00 
 248    6:00   0.01   57.0    99    0.2   270     1.2   837.0    0.00 
 248    6:10   0.01   56.8    99    0.4   272     1.7   837.2    0.00 
 248    6:20   0.02   56.9    99    0.1   266     2.0   837.4    0.00 
 248    6:30   0.03   56.9    99    0.0     0     0.0   837.5    0.00 
 248    6:40   0.03   57.2   100    0.1   334     0.7   837.6    0.00 
 248    6:50   0.05   57.7   100    0.5   301     2.5   837.7    0.00 
 248    7:00   0.08   58.5   100    0.2   261     1.8   837.8    0.00 
 248    7:10   0.13   59.1   100    0.1    30     2.0   838.0    0.00 
 248    7:20   0.11   59.7    99    0.0     0     0.0   838.1    0.00 
 248    7:30   0.23   61.0    99    0.0   257     0.9   838.1    0.00 
 248    7:40   0.25   63.4    89    0.0   129     0.9   838.2    0.00 
 248    7:50   0.31   67.0    72    0.3   164     1.7   838.2    0.00 
 248    8:00   0.30   69.8    67    0.3   122     2.2   838.3    0.00 
 248    8:10   0.34   71.7    63    1.1   129     2.3   838.4    0.00 
 248    8:20   0.42   72.5    58    0.5   234     1.8   838.3    0.00 
 248    8:30   0.45   74.4    54    0.4   165     1.3   838.3    0.00 
 248    8:40   0.44   75.9    49    0.5   148     1.7   838.3    0.00 
 248    8:50   0.50   77.1    49    0.4   121     3.9   838.3    0.00 
 248    9:00   0.53   77.7    50    1.4    87     4.7   838.3    0.00 
 248    9:10   0.53   78.4    47    1.6   126     4.7   838.4    0.00 
 248    9:20   0.57   78.8    46    1.9   120     6.4   838.3    0.00 
 248    9:30   0.55   78.8    47    2.6   134     7.4   838.3    0.00 
 248    9:40   0.64   79.1    45    3.0    98     6.1   838.4    0.00 
 248    9:50   0.65   79.7    44    2.2   110     5.4   838.3    0.00 
 248   10:00   0.68   79.9    44    1.5   147     4.3   838.3    0.00 
 248   10:10   0.70   80.6    44    2.1   136     6.3   838.3    0.00 
 248   10:20   0.72   80.8    43    2.5    89     7.5   838.3    0.00 
 248   10:30   0.69   80.9    43    1.3   152     4.7   838.2    0.00 
 248   10:40   0.74   81.3    42    1.8   104     6.8   838.1    0.00 
 248   10:50   0.73   81.8    42    2.0   121     8.0   838.1    0.00 
 248   11:00   0.79   82.1    41    2.4   164     5.6   837.9    0.00 
 248   11:10   0.80   82.0    40    1.7    68     4.5   837.8    0.00 
 248   11:20   0.81   82.8    40    1.7    95     6.0   837.7    0.00 
 248   11:30   0.82   83.5    39    1.2   130     4.4   837.5    0.00 
 248   11:40   0.84   83.5    39    2.7   130     7.6   837.5    0.00 
 248   11:50   0.89   84.3    38    2.3   111     6.5   837.4    0.00 
 248   12:00   0.93   83.8    38    1.7   229     5.2   837.2    0.00 
 248   12:10   0.89   84.1    38    1.2   284     4.0   837.1    0.00 
 248   12:20   0.93   85.2    39    2.6   231     6.8   837.0    0.00 
 248   12:30   0.91   84.7    42    2.0   220     7.3   836.8    0.00 
 248   12:40   0.27   83.6    44    1.9   238     8.3   836.8    0.00 
 248   12:50   0.12   80.8    48    1.1   236     5.0   836.8    0.00 
 248   13:00   0.12   79.7    50    0.7   215     4.6   836.8    0.00 
 248   13:10   0.12   79.5    50    0.4   274     2.2   836.8    0.00 
 248   13:20   0.15   79.7    52    0.0     0     0.0   836.7    0.00 
 248   13:30   0.18   79.5    51    0.3   176     2.3   836.7    0.00 
 248   13:40   0.16   79.6    48    0.7   202     3.7   836.7    0.00 
 248   13:50   0.17   79.8    50    0.2   127     1.7   836.5    0.00 
 248   14:00   0.19   79.6    49    0.3   272     1.7   836.4    0.00 
 248   14:10   0.23   79.6    52    0.6    40     3.0   836.4    0.00 
 248   14:20   0.76   81.1    50    1.6     7     4.2   836.2    0.00 
 248   14:30   0.78   83.8    44    0.7   238     4.2   836.0    0.00 
 248   14:40   0.73   84.4    43    2.2   274     7.1   835.8    0.00 
 248   14:50   0.68   84.6    41    2.2   248     7.6   835.5    0.00 
 248   15:00   0.64   84.0    40    1.3   239     5.8   835.5    0.00 
 248   15:10   0.60   84.3    40    1.2   219     4.7   835.4    0.00 
 248   15:20   0.58   85.3    38    1.4   354     5.1   835.3    0.00 
 248   15:30   0.56   85.0    38    1.0   356     6.6   835.2    0.00 
 248   15:40   0.53   85.2    38    1.0   347     4.2   835.2    0.00 
 248   15:50   0.49   84.7    37    0.5    58     4.0   835.0    0.00 
 248   16:00   0.47   84.8    38    1.1   230     5.2   834.9    0.00 
 248   16:10   0.45   84.0    38    1.1   283     5.2   834.9    0.00 
 248   16:20   0.44   85.1    38    1.3   355     4.3   834.9    0.00 
 248   16:30   0.42   84.9    38    1.6   316     8.4   834.9    0.00 
 248   16:40   0.41   84.7    38    0.7   359     3.0   834.9    0.00 
 248   16:50   0.38   85.2    38    0.9   355     3.9   835.0    0.00 
 248   17:00   0.36   85.0    37    1.6   295     6.1   835.1    0.00 
 248   17:10   0.33   84.5    38    0.5   356     3.8   835.0    0.00 
 248   17:20   0.21   83.6    39    1.4   261     5.2   835.1    0.00 
 248   17:30   0.08   82.9    41    0.7   282     2.8   835.2    0.00 
 248   17:40   0.05   81.9    42    0.9   314     4.3   835.2    0.00 
 248   17:50   0.04   80.8    47    0.1   283     1.5   835.2    0.00 
 248   18:00   0.04   79.1    53    0.3   256     2.2   835.3    0.00 
 248   18:10   0.03   77.7    56    0.0   285     0.9   835.4    0.00 
 248   18:20   0.02   76.5    58    0.2   311     1.6   835.5    0.00 
 248   18:30   0.01   75.4    62    0.0     0     0.0   835.5    0.00 
 248   18:40   0.01   74.3    63    0.1   301     1.6   835.6    0.00 
 248   18:50   0.00   73.8    64    0.0   305     0.7   835.6    0.00 
 248   19:00   0.00   72.5    68    0.1   250     1.2   835.7    0.00 
 248   19:10   0.00   71.8    68    0.0     0     0.0   835.7    0.00 
 248   19:20   0.00   71.2    73    0.2   269     0.9   835.8    0.00 
 248   19:30   0.00   70.5    74    0.4   278     2.6   835.8    0.00 
 248   19:40   0.00   70.1    75    0.0   222     0.6   835.9    0.00 
 248   19:50   0.00   69.7    77    0.2   250     1.4   836.0    0.00 
 248   20:00   0.00   69.3    78    0.2   279     1.4   836.1    0.00 
 248   20:10   0.00   68.8    79    0.4   276     2.0   836.2    0.00 
 248   20:20   0.00   68.6    79    0.1   265     1.2   836.3    0.00 
 248   20:30   0.00   67.9    81    0.3   272     1.5   836.4    0.00 
 248   20:40   0.00   67.5    82    0.0   226     0.7   836.5    0.00 
 248   20:50   0.00   67.0    83    0.1   261     1.1   836.6    0.00 
 248   21:00   0.00   66.7    84    0.3   267     1.9   836.7    0.00 
 248   21:10   0.00   66.3    85    0.1   274     1.7   836.6    0.00 
 248   21:20   0.00   66.0    85    0.3   254     1.9   836.7    0.00 
 248   21:30   0.00   65.6    85    0.3   267     2.9   836.6    0.00 
 248   21:40   0.00   65.3    86    0.1   281     2.6   836.6    0.00 
 248   21:50   0.00   65.0    86    0.3   270     2.4   836.5    0.00 
 248   22:00   0.00   64.7    86    0.2   223     0.9   836.6    0.00 

Return to Southwestern Research Station graphs page.


Western Regional Climate Center,wrcc@dri.edu